createdAt,value
2023-03-29T00:01:00.130Z,3.22
2023-03-29T00:03:27.544Z,4.47
2023-03-29T00:06:03.107Z,4.75
2023-03-29T00:08:31.517Z,3.60
2023-03-29T00:10:59.303Z,4.03
2023-03-29T00:13:27.264Z,5.20
2023-03-29T00:15:54.913Z,4.38
2023-03-29T00:18:21.534Z,4.40
2023-03-29T00:20:57.257Z,7.30
2023-03-29T00:23:27.343Z,4.38
2023-03-29T00:25:54.734Z,4.20
2023-03-29T00:28:21.690Z,5.10
2023-03-29T00:30:50.513Z,4.93
2023-03-29T00:33:18.990Z,3.80
2023-03-29T00:35:46.202Z,6.60
2023-03-29T00:38:13.066Z,4.25
2023-03-29T00:40:44.633Z,6.05
2023-03-29T00:43:12.509Z,6.15
2023-03-29T00:45:39.077Z,4.75
2023-03-29T00:48:15.851Z,6.28
2023-03-29T00:50:52.753Z,4.30
2023-03-29T00:53:23.857Z,4.00
2023-03-29T00:56:06.333Z,4.30
2023-03-29T00:58:49.402Z,4.90
2023-03-29T01:01:20.748Z,4.00
2023-03-29T01:03:54.400Z,5.25
2023-03-29T01:06:24.818Z,8.38
2023-03-29T01:08:56.656Z,6.38
2023-03-29T01:11:28.285Z,4.22
2023-03-29T01:14:34.550Z,5.93
2023-03-29T01:17:01.154Z,4.20
2023-03-29T01:19:33.927Z,4.13
2023-03-29T01:22:22.347Z,5.68
2023-03-29T01:25:15.100Z,5.75
2023-03-29T01:28:02.673Z,5.03
2023-03-29T01:30:37.239Z,8.00
2023-03-29T01:33:26.709Z,8.27
2023-03-29T01:35:57.747Z,4.82
2023-03-29T01:38:36.416Z,6.68
2023-03-29T01:41:05.386Z,4.55
2023-03-29T01:43:41.321Z,5.40
2023-03-29T01:46:15.406Z,4.93
2023-03-29T01:48:51.604Z,5.72
2023-03-29T01:51:24.793Z,4.15
2023-03-29T01:53:59.857Z,6.07
2023-03-29T01:56:29.126Z,4.78
2023-03-29T01:59:05.825Z,3.78
2023-03-29T02:01:40.605Z,4.55
2023-03-29T02:04:14.023Z,6.05
2023-03-29T02:06:41.779Z,5.60
2023-03-29T02:09:09.150Z,5.63
2023-03-29T02:11:36.805Z,5.38
2023-03-29T02:14:03.523Z,4.65
2023-03-29T02:16:36.009Z,9.02
2023-03-29T02:19:03.303Z,5.47
2023-03-29T02:21:44.684Z,7.07
2023-03-29T02:24:15.292Z,7.00
2023-03-29T02:26:41.770Z,4.88
2023-03-29T02:29:08.433Z,6.97
2023-03-29T02:31:40.977Z,5.35
2023-03-29T02:34:28.202Z,6.22
2023-03-29T02:36:59.918Z,5.80
2023-03-29T02:39:29.450Z,5.35
2023-03-29T02:41:56.737Z,6.45
2023-03-29T02:44:27.711Z,6.97
2023-03-29T02:46:58.841Z,6.03
2023-03-29T02:49:25.394Z,5.32
2023-03-29T02:51:56.020Z,6.03
2023-03-29T02:54:27.021Z,5.05
2023-03-29T02:56:59.116Z,7.70
2023-03-29T02:59:26.223Z,6.65
2023-03-29T03:01:53.588Z,5.45
2023-03-29T03:04:23.085Z,5.03
2023-03-29T03:06:49.531Z,5.47
2023-03-29T03:09:15.928Z,7.05
2023-03-29T03:11:43.364Z,6.82
2023-03-29T03:14:10.288Z,4.63
2023-03-29T03:16:37.349Z,5.55
2023-03-29T03:19:04.345Z,4.88
2023-03-29T03:21:30.944Z,6.30
2023-03-29T03:23:57.347Z,4.68
2023-03-29T03:26:24.938Z,7.40
2023-03-29T03:28:51.447Z,6.82
2023-03-29T03:31:19.564Z,5.32
2023-03-29T03:33:45.991Z,6.28
2023-03-29T03:36:13.885Z,5.40
2023-03-29T03:38:41.272Z,5.80
2023-03-29T03:41:07.731Z,8.68
2023-03-29T03:43:34.759Z,5.80
2023-03-29T03:46:02.032Z,5.63
2023-03-29T03:48:28.527Z,4.13
2023-03-29T03:50:58.162Z,4.18
2023-03-29T03:53:27.361Z,4.30
2023-03-29T03:55:55.960Z,6.05
2023-03-29T03:58:23.188Z,6.38
2023-03-29T04:00:50.779Z,9.27
2023-03-29T04:03:17.679Z,6.88
2023-03-29T04:05:48.843Z,8.40
2023-03-29T04:08:15.367Z,4.70
2023-03-29T04:10:42.355Z,4.53
2023-03-29T04:13:08.768Z,7.13
2023-03-29T04:15:38.666Z,4.80
2023-03-29T04:18:07.308Z,5.10
2023-03-29T04:20:34.634Z,5.72
2023-03-29T04:23:01.796Z,7.43
2023-03-29T04:25:28.555Z,5.82
2023-03-29T04:27:56.070Z,7.18
2023-03-29T04:30:22.584Z,5.20
2023-03-29T04:32:49.062Z,6.68
2023-03-29T04:35:15.450Z,8.65
2023-03-29T04:37:44.439Z,7.85
2023-03-29T04:40:14.923Z,6.60
2023-03-29T04:42:45.869Z,4.97
2023-03-29T04:45:14.053Z,5.20
2023-03-29T04:47:42.032Z,6.43
2023-03-29T04:50:09.731Z,7.93
2023-03-29T04:52:36.143Z,8.23
2023-03-29T04:55:03.926Z,6.10
2023-03-29T04:57:30.831Z,6.20
2023-03-29T04:59:57.452Z,8.13
2023-03-29T05:02:23.992Z,5.18
2023-03-29T05:04:50.553Z,5.78
2023-03-29T05:07:19.807Z,4.85
2023-03-29T05:09:46.348Z,6.13
2023-03-29T05:12:12.882Z,6.45
2023-03-29T05:14:39.222Z,9.80
2023-03-29T05:17:06.466Z,5.93
2023-03-29T05:19:33.627Z,4.88
2023-03-29T05:22:00.712Z,5.93
2023-03-29T05:24:27.252Z,6.43
2023-03-29T05:26:53.612Z,5.85
2023-03-29T05:29:20.165Z,5.18
2023-03-29T05:31:47.095Z,6.75
2023-03-29T05:34:13.719Z,5.40
2023-03-29T05:36:40.341Z,7.72
2023-03-29T05:39:07.289Z,6.28
2023-03-29T05:41:34.402Z,4.15
2023-03-29T05:44:00.927Z,4.65
2023-03-29T05:46:27.383Z,6.72
2023-03-29T05:48:54.181Z,6.75
2023-03-29T05:51:24.244Z,5.88
2023-03-29T05:53:51.542Z,6.60
2023-03-29T05:56:19.033Z,5.28
2023-03-29T05:58:54.454Z,6.45
2023-03-29T06:01:22.553Z,9.48
2023-03-29T06:03:49.213Z,5.82
2023-03-29T06:06:16.687Z,8.30
2023-03-29T06:08:44.291Z,6.13
2023-03-29T06:11:13.215Z,6.45
2023-03-29T06:13:40.170Z,7.13
2023-03-29T06:16:07.274Z,10.18
2023-03-29T06:18:34.136Z,6.10
2023-03-29T06:21:02.738Z,6.63
2023-03-29T06:23:30.683Z,9.05
2023-03-29T06:25:58.093Z,8.25
2023-03-29T06:28:24.732Z,6.35
2023-03-29T06:30:51.415Z,7.05
2023-03-29T06:33:18.660Z,6.45
2023-03-29T06:35:47.461Z,7.43
2023-03-29T06:38:15.213Z,8.07
2023-03-29T06:40:43.178Z,8.10
2023-03-29T06:43:09.669Z,10.43
2023-03-29T06:45:37.844Z,7.72
2023-03-29T06:48:05.919Z,7.75
2023-03-29T06:50:32.575Z,7.28
2023-03-29T06:52:59.079Z,8.18
2023-03-29T06:55:27.237Z,7.28
2023-03-29T06:57:54.816Z,6.75
2023-03-29T07:00:30.588Z,7.18
2023-03-29T07:02:58.897Z,8.30
2023-03-29T07:05:29.318Z,8.15
2023-03-29T07:08:11.762Z,9.65
2023-03-29T07:10:41.217Z,6.68
2023-03-29T07:13:11.075Z,5.72
2023-03-29T07:15:37.702Z,7.88
2023-03-29T07:18:07.389Z,12.50
2023-03-29T07:20:33.967Z,8.95
2023-03-29T07:23:02.396Z,5.30
2023-03-29T07:25:29.967Z,8.80
2023-03-29T07:27:58.630Z,11.88
2023-03-29T07:30:30.944Z,11.88
2023-03-29T07:33:00.639Z,9.20
2023-03-29T07:35:27.879Z,8.93
2023-03-29T07:37:58.400Z,10.35
2023-03-29T07:40:26.300Z,7.60
2023-03-29T07:42:55.051Z,9.43
2023-03-29T07:45:26.787Z,9.57
2023-03-29T07:47:57.491Z,10.05
2023-03-29T07:50:24.724Z,9.27
2023-03-29T07:52:51.473Z,10.80
2023-03-29T07:55:18.201Z,8.85
2023-03-29T07:57:44.594Z,11.68
2023-03-29T08:00:16.011Z,11.70
2023-03-29T08:02:48.131Z,11.30
2023-03-29T08:05:23.238Z,9.32
2023-03-29T08:07:56.194Z,10.77
2023-03-29T08:10:23.042Z,9.68
2023-03-29T08:12:50.269Z,7.93
2023-03-29T08:15:16.973Z,12.30
2023-03-29T08:17:43.870Z,9.15
2023-03-29T08:20:13.087Z,12.57
2023-03-29T08:22:39.474Z,12.27
2023-03-29T08:25:08.109Z,10.48
2023-03-29T08:27:37.440Z,12.00
2023-03-29T08:30:06.691Z,13.80
2023-03-29T08:32:33.320Z,10.20
2023-03-29T08:35:01.401Z,10.93
2023-03-29T08:37:28.121Z,11.90
2023-03-29T08:39:54.557Z,9.93
2023-03-29T08:42:55.304Z,9.30
2023-03-29T08:45:33.826Z,13.35
2023-03-29T08:48:25.483Z,10.30
2023-03-29T08:50:58.447Z,13.27
2023-03-29T08:53:31.816Z,11.75
2023-03-29T08:56:02.463Z,9.88
2023-03-29T08:58:32.805Z,12.00
2023-03-29T09:01:01.803Z,14.32
2023-03-29T09:03:45.298Z,14.25
2023-03-29T09:06:12.906Z,8.90
2023-03-29T09:08:45.539Z,12.60
2023-03-29T09:11:23.821Z,12.25
2023-03-29T09:14:21.452Z,11.10
2023-03-29T09:17:21.538Z,18.92
2023-03-29T09:20:22.114Z,13.45
2023-03-29T09:23:02.230Z,18.13
2023-03-29T09:25:53.417Z,13.18
2023-03-29T09:28:54.943Z,11.88
2023-03-29T09:31:26.014Z,10.32
2023-03-29T09:33:58.598Z,11.82
2023-03-29T09:36:52.523Z,11.85
2023-03-29T09:39:21.199Z,15.50
2023-03-29T09:41:51.044Z,12.15
2023-03-29T09:44:30.738Z,10.88
2023-03-29T09:47:06.121Z,12.77
2023-03-29T09:49:42.760Z,9.57
2023-03-29T09:52:13.000Z,8.75
2023-03-29T09:54:39.861Z,15.43
2023-03-29T09:57:06.856Z,12.95
2023-03-29T09:59:33.517Z,11.82
2023-03-29T10:02:12.907Z,13.00
2023-03-29T10:04:42.460Z,12.30
2023-03-29T10:07:20.709Z,12.63
2023-03-29T10:09:56.701Z,14.27
2023-03-29T10:12:23.229Z,13.25
2023-03-29T10:14:53.942Z,10.93
2023-03-29T10:17:26.719Z,14.60
2023-03-29T10:20:03.975Z,15.35
2023-03-29T10:22:41.121Z,14.02
2023-03-29T10:25:17.120Z,15.10
2023-03-29T10:27:46.781Z,18.75
2023-03-29T10:30:25.350Z,11.70
2023-03-29T10:33:00.331Z,14.85
2023-03-29T10:35:34.597Z,10.95
2023-03-29T10:38:07.545Z,11.25
2023-03-29T10:40:40.191Z,15.07
2023-03-29T10:43:21.810Z,12.85
2023-03-29T10:45:54.196Z,11.93
2023-03-29T10:48:27.776Z,14.02
2023-03-29T10:50:58.491Z,15.23
2023-03-29T10:53:29.261Z,11.75
2023-03-29T10:56:01.697Z,11.63
2023-03-29T10:58:42.337Z,10.27
2023-03-29T11:01:22.236Z,12.48
2023-03-29T11:04:07.860Z,13.73
2023-03-29T11:06:46.086Z,10.80
2023-03-29T11:09:49.805Z,10.02
2023-03-29T11:12:21.566Z,11.13
2023-03-29T11:15:19.069Z,14.07
2023-03-29T11:18:23.245Z,10.38
2023-03-29T11:21:16.832Z,13.93
2023-03-29T11:23:59.647Z,13.55
2023-03-29T11:26:39.950Z,9.80
2023-03-29T11:29:23.631Z,11.98
2023-03-29T11:31:59.295Z,12.25
2023-03-29T11:34:37.699Z,10.55
2023-03-29T11:37:20.414Z,10.00
2023-03-29T11:40:15.976Z,12.23
2023-03-29T11:42:48.288Z,9.93
2023-03-29T11:45:23.395Z,8.93
2023-03-29T11:47:51.507Z,10.88
2023-03-29T11:50:44.847Z,10.27
2023-03-29T11:53:17.064Z,9.65
2023-03-29T11:55:44.637Z,9.45
2023-03-29T11:58:22.427Z,12.30
2023-03-29T12:01:01.780Z,12.50
2023-03-29T12:03:40.397Z,13.98
2023-03-29T12:06:31.967Z,14.80
2023-03-29T12:09:04.583Z,13.68
2023-03-29T12:11:38.551Z,15.20
2023-03-29T12:14:14.143Z,14.57
2023-03-29T12:17:22.978Z,13.40
2023-03-29T12:20:15.110Z,13.02
2023-03-29T12:22:41.665Z,14.02
2023-03-29T12:25:18.218Z,13.77
2023-03-29T12:27:56.246Z,10.65
2023-03-29T12:30:46.424Z,13.60
2023-03-29T12:33:28.238Z,12.18
2023-03-29T12:36:09.847Z,12.95
2023-03-29T12:38:37.668Z,16.08
2023-03-29T12:41:16.637Z,13.05
2023-03-29T12:43:43.559Z,13.10
2023-03-29T12:46:19.434Z,13.57
2023-03-29T12:48:49.331Z,15.27
2023-03-29T12:51:23.383Z,13.00
2023-03-29T12:53:53.684Z,15.95
2023-03-29T12:56:36.329Z,16.80
2023-03-29T12:59:10.762Z,14.00
2023-03-29T13:01:41.491Z,14.38
2023-03-29T13:04:17.543Z,12.23
2023-03-29T13:06:46.817Z,13.20
2023-03-29T13:10:06.035Z,12.88
2023-03-29T13:12:35.798Z,12.27
2023-03-29T13:15:07.818Z,13.68
2023-03-29T13:20:29.001Z,12.55
2023-03-29T13:23:21.633Z,12.95
2023-03-29T13:26:07.640Z,12.40
2023-03-29T13:28:57.934Z,14.18
2023-03-29T13:31:33.538Z,11.10
2023-03-29T13:34:31.030Z,10.32
2023-03-29T13:37:10.566Z,12.32
2023-03-29T13:39:47.317Z,9.63
2023-03-29T13:42:19.374Z,11.40
2023-03-29T13:47:41.810Z,14.00
2023-03-29T13:50:18.542Z,12.43
2023-03-29T13:52:58.722Z,10.35
2023-03-29T13:55:32.273Z,11.27
2023-03-29T13:58:10.211Z,11.95
2023-03-29T14:00:47.045Z,14.10
2023-03-29T14:03:18.476Z,12.20
2023-03-29T14:05:50.626Z,12.70
2023-03-29T14:08:25.418Z,12.38
2023-03-29T14:10:53.444Z,11.43
2023-03-29T14:13:23.367Z,12.05
2023-03-29T14:16:11.658Z,10.95
2023-03-29T14:18:41.239Z,13.32
2023-03-29T14:21:08.571Z,11.90
2023-03-29T14:23:37.409Z,13.68
2023-03-29T14:26:16.670Z,14.70
2023-03-29T14:28:56.504Z,13.05
2023-03-29T14:31:30.541Z,12.55
2023-03-29T14:33:59.276Z,13.15
2023-03-29T14:36:27.192Z,14.82
2023-03-29T14:39:18.337Z,12.88
2023-03-29T14:41:51.676Z,15.15
2023-03-29T14:44:21.703Z,13.27
2023-03-29T14:46:48.309Z,12.25
2023-03-29T14:49:20.654Z,13.07
2023-03-29T14:51:48.215Z,12.88
2023-03-29T14:54:33.324Z,13.52
2023-03-29T14:57:03.705Z,14.65
2023-03-29T14:59:37.393Z,13.50
2023-03-29T15:02:21.751Z,12.88
2023-03-29T15:05:04.960Z,13.93
2023-03-29T15:07:36.988Z,14.07
2023-03-29T15:10:06.389Z,16.45
2023-03-29T15:12:34.112Z,16.08
2023-03-29T15:15:01.457Z,16.65
2023-03-29T15:17:51.216Z,14.27
2023-03-29T15:20:27.105Z,15.80
2023-03-29T15:22:58.663Z,15.05
2023-03-29T15:25:37.633Z,17.08
2023-03-29T15:28:04.901Z,16.05
2023-03-29T15:30:34.769Z,15.15
2023-03-29T15:33:16.561Z,18.38
2023-03-29T15:35:47.409Z,24.35
2023-03-29T15:38:14.204Z,17.02
2023-03-29T15:40:41.163Z,15.40
2023-03-29T15:43:07.867Z,15.88
2023-03-29T15:45:34.679Z,14.77
2023-03-29T15:48:04.787Z,17.23
2023-03-29T15:50:32.478Z,14.77
2023-03-29T15:53:05.409Z,16.13
2023-03-29T15:55:44.963Z,13.57
2023-03-29T15:58:16.904Z,12.73
2023-03-29T16:00:48.456Z,11.68
2023-03-29T16:03:15.985Z,11.95
2023-03-29T16:05:45.421Z,15.98
2023-03-29T16:08:13.166Z,11.35
2023-03-29T16:10:41.224Z,10.90
2023-03-29T16:13:10.039Z,11.50
2023-03-29T16:15:37.183Z,8.45
2023-03-29T16:18:05.232Z,10.57
2023-03-29T16:20:32.186Z,12.77
2023-03-29T16:22:58.678Z,10.73
2023-03-29T16:25:25.341Z,9.93
2023-03-29T16:28:01.574Z,9.52
2023-03-29T16:30:28.625Z,9.95
2023-03-29T16:32:55.201Z,8.65
2023-03-29T16:35:26.361Z,9.95
2023-03-29T16:37:52.733Z,9.88
2023-03-29T16:40:20.980Z,9.07
2023-03-29T16:42:47.870Z,10.45
2023-03-29T16:45:14.929Z,9.45
2023-03-29T16:47:44.894Z,9.13
2023-03-29T16:50:12.958Z,8.35
2023-03-29T16:52:40.022Z,7.43
2023-03-29T16:55:07.872Z,7.13
2023-03-29T16:57:34.438Z,7.65
2023-03-29T17:00:01.178Z,7.03
2023-03-29T17:02:27.775Z,8.35
2023-03-29T17:04:54.354Z,6.55
2023-03-29T17:07:20.797Z,8.13
2023-03-29T17:09:47.424Z,6.10
2023-03-29T17:12:14.241Z,7.30
2023-03-29T17:14:41.899Z,7.82
2023-03-29T17:17:08.330Z,7.57
2023-03-29T17:19:34.868Z,5.97
2023-03-29T17:22:01.324Z,5.97
2023-03-29T17:24:30.859Z,7.13
2023-03-29T17:26:58.955Z,5.35
2023-03-29T17:29:25.376Z,9.43
2023-03-29T17:31:51.821Z,7.00
2023-03-29T17:34:19.343Z,7.72
2023-03-29T17:36:46.200Z,5.45
2023-03-29T17:39:15.270Z,8.02
2023-03-29T17:41:42.508Z,6.63
2023-03-29T17:44:08.973Z,7.57
2023-03-29T17:46:35.463Z,4.97
2023-03-29T17:49:04.074Z,5.57
2023-03-29T17:51:30.965Z,9.73
2023-03-29T17:53:58.460Z,5.72
2023-03-29T17:56:26.807Z,5.93
2023-03-29T17:58:53.827Z,5.10
2023-03-29T18:01:28.154Z,5.30
2023-03-29T18:03:54.872Z,6.38
2023-03-29T18:06:21.403Z,4.65
2023-03-29T18:08:48.234Z,9.38
2023-03-29T18:11:22.774Z,4.45
2023-03-29T18:13:51.273Z,6.63
2023-03-29T18:16:18.598Z,9.43
2023-03-29T18:18:46.368Z,7.10
2023-03-29T18:21:14.808Z,11.52
2023-03-29T18:23:45.089Z,7.85
2023-03-29T18:26:12.231Z,8.05
2023-03-29T18:28:38.948Z,7.40
2023-03-29T18:31:06.027Z,8.95
2023-03-29T18:33:35.229Z,12.43
2023-03-29T18:36:09.848Z,10.05
2023-03-29T18:41:08.533Z,6.10
2023-03-29T18:43:35.984Z,7.40
2023-03-29T18:46:03.255Z,6.95
2023-03-29T18:48:30.269Z,7.82
2023-03-29T18:50:57.822Z,7.25
2023-03-29T18:53:24.602Z,8.65
2023-03-29T18:55:55.383Z,6.32
2023-03-29T18:58:23.964Z,8.93
2023-03-29T19:00:51.382Z,5.70
2023-03-29T19:03:18.311Z,5.28
2023-03-29T19:05:44.861Z,7.47
2023-03-29T19:08:11.324Z,7.03
2023-03-29T19:10:39.273Z,7.43
2023-03-29T19:13:06.216Z,7.85
2023-03-29T19:15:34.688Z,7.13
2023-03-29T19:18:01.491Z,6.65
2023-03-29T19:20:28.375Z,7.28
2023-03-29T19:22:54.825Z,4.82
2023-03-29T19:25:21.455Z,5.97
2023-03-29T19:27:47.890Z,7.50
2023-03-29T19:30:14.866Z,7.38
2023-03-29T19:32:41.283Z,7.15
2023-03-29T19:35:09.546Z,9.38
2023-03-29T19:37:36.109Z,7.53
2023-03-29T19:40:03.726Z,9.65
2023-03-29T19:42:30.343Z,8.13
2023-03-29T19:44:56.838Z,5.68
2023-03-29T19:47:24.478Z,5.43
2023-03-29T19:49:51.406Z,6.47
2023-03-29T19:52:17.842Z,8.70
2023-03-29T19:54:47.286Z,6.13
2023-03-29T19:57:13.780Z,14.35
2023-03-29T19:59:43.020Z,6.72
2023-03-29T20:02:11.330Z,9.15
2023-03-29T20:04:37.926Z,7.90
2023-03-29T20:07:04.685Z,9.75
2023-03-29T20:09:32.755Z,7.35
2023-03-29T20:12:00.167Z,8.27
2023-03-29T20:14:28.273Z,6.20
2023-03-29T20:16:55.178Z,7.93
2023-03-29T20:19:25.317Z,7.57
2023-03-29T20:21:58.718Z,6.28
2023-03-29T20:24:25.352Z,8.63
2023-03-29T20:26:52.685Z,7.88
2023-03-29T20:29:19.142Z,6.00
2023-03-29T20:31:46.425Z,9.93
2023-03-29T20:34:13.050Z,6.18
2023-03-29T20:36:40.565Z,7.82
2023-03-29T20:39:19.613Z,7.07
2023-03-29T20:41:47.668Z,9.90
2023-03-29T20:44:16.705Z,8.95
2023-03-29T20:46:54.059Z,10.65
2023-03-29T20:49:26.681Z,8.77
2023-03-29T20:52:03.260Z,11.50
2023-03-29T20:54:29.716Z,6.80
2023-03-29T20:56:56.464Z,7.07
2023-03-29T20:59:22.950Z,6.53
2023-03-29T21:01:50.329Z,7.97
2023-03-29T21:04:17.677Z,8.35
2023-03-29T21:06:45.682Z,7.65
2023-03-29T21:09:13.245Z,6.38
2023-03-29T21:11:39.818Z,7.47
2023-03-29T21:14:06.241Z,6.60
2023-03-29T21:16:32.703Z,9.07
2023-03-29T21:18:59.135Z,7.85
2023-03-29T21:21:25.630Z,7.30
2023-03-29T21:23:52.152Z,5.60
2023-03-29T21:26:18.626Z,15.95
2023-03-29T21:28:45.317Z,9.77
2023-03-29T21:31:11.766Z,7.75
2023-03-29T21:33:38.279Z,10.48
2023-03-29T21:36:05.609Z,6.80
2023-03-29T21:38:32.259Z,9.73
2023-03-29T21:41:00.256Z,10.80
2023-03-29T21:43:26.893Z,7.70
2023-03-29T21:45:53.367Z,8.70
2023-03-29T21:48:19.798Z,6.18
2023-03-29T21:50:49.860Z,8.57
2023-03-29T21:53:16.674Z,6.00
2023-03-29T21:55:43.083Z,11.40
2023-03-29T21:58:09.661Z,9.35
2023-03-29T22:00:36.088Z,6.82
2023-03-29T22:03:02.540Z,12.18
2023-03-29T22:05:28.987Z,6.97
2023-03-29T22:07:58.532Z,8.07
2023-03-29T22:10:25.246Z,7.30
2023-03-29T22:13:00.973Z,6.47
2023-03-29T22:15:29.362Z,10.68
2023-03-29T22:17:59.753Z,7.30
2023-03-29T22:20:27.432Z,10.32
2023-03-29T22:22:53.907Z,7.53
2023-03-29T22:25:20.817Z,9.23
2023-03-29T22:27:48.736Z,7.63
2023-03-29T22:30:16.260Z,7.30
2023-03-29T22:32:42.904Z,8.25
2023-03-29T22:35:10.002Z,9.20
2023-03-29T22:37:44.121Z,7.28
2023-03-29T22:40:12.114Z,6.65
2023-03-29T22:42:38.849Z,8.23
2023-03-29T22:45:06.524Z,8.25
2023-03-29T22:47:33.116Z,6.30
2023-03-29T22:49:59.477Z,6.75
2023-03-29T22:52:26.042Z,9.48
2023-03-29T22:54:52.557Z,8.20
2023-03-29T22:57:18.967Z,6.25
2023-03-29T22:59:45.405Z,7.38
2023-03-29T23:02:11.865Z,5.65
2023-03-29T23:04:38.812Z,9.02
2023-03-29T23:07:07.614Z,8.68
2023-03-29T23:09:34.033Z,6.00
2023-03-29T23:12:01.161Z,8.93
2023-03-29T23:14:27.817Z,6.80
2023-03-29T23:16:54.342Z,8.27
2023-03-29T23:19:20.763Z,8.02
2023-03-29T23:21:47.141Z,8.45
2023-03-29T23:24:13.532Z,5.78
2023-03-29T23:26:39.980Z,8.65
2023-03-29T23:29:06.389Z,5.97
2023-03-29T23:31:33.835Z,5.63
2023-03-29T23:34:00.288Z,8.63
2023-03-29T23:36:31.087Z,11.30
2023-03-29T23:38:59.436Z,6.38
2023-03-29T23:41:30.421Z,6.75
2023-03-29T23:43:57.662Z,7.07
2023-03-29T23:46:31.370Z,7.13
2023-03-29T23:48:58.338Z,4.90
2023-03-29T23:51:28.789Z,7.43
2023-03-29T23:53:56.312Z,7.07
2023-03-29T23:56:22.866Z,12.73
2023-03-29T23:58:49.402Z,8.60
